»·PEaware :: N535DM KYKM-KGEG

N535DM :: KYKM-KGEG

FLIGHT INFORMATION

Flight Status: Arrived
Operator: Privately registered:
United States
More flights under this callsign
Pilot: Marcelo S. (23897)
Aircraft: SOCATA TBM-900
(TBM9)
More flights by this aircraft type
Origin: KYKM Yakima Air Term/Mcallister
United States
Destination: KGEG Spokane Intl
United States
More flights between these airports :: More routes between these airports
Route: WENAS7 RUBEL MWH V2 GEG
File this flight plan on PilotEdge
Remarks:
Altitude:
(Current/Filed)
19,000ft
Speed:
(Current/Filed)
210kts
Departed: 03-Apr-20 05:32 PM
Arrived: 03-Apr-20 06:16 PM
Distance/Time
Traveled:
138nm/0:44
Distance/Time
To Go:
Arrived

Flight Plot

Page will automatically refresh every two minutes.


Map Options




Map Legend


Flown Route
Filed Route
Departure Airport
Arrival Airport
Navaid (VOR, NDB)
Fix

Horizontal Profiles

Position Reports

Time Latitude Longitude Heading Altitude Ground
Speed
03-Apr-20 16:40 46.573004 -120.554164 288 1087ft 0kts
03-Apr-20 16:41 46.573004 -120.554164 288 1087ft 0kts
03-Apr-20 16:41 46.573004 -120.554164 288 1087ft 0kts
03-Apr-20 16:43 46.573004 -120.554164 288 1087ft 0kts
03-Apr-20 16:44 46.573004 -120.554164 288 1087ft 0kts
03-Apr-20 16:44 46.573004 -120.554164 288 1087ft 0kts
03-Apr-20 16:45 46.573004 -120.554164 288 1087ft 0kts
03-Apr-20 16:46 46.573004 -120.554164 288 1087ft 0kts
03-Apr-20 16:48 46.573004 -120.554164 288 1087ft 0kts
03-Apr-20 16:48 46.573004 -120.554164 288 1087ft 0kts
03-Apr-20 16:49 46.573004 -120.554164 288 1087ft 0kts
03-Apr-20 16:50 46.573004 -120.554164 288 1087ft 0kts
03-Apr-20 16:51 46.573004 -120.554164 288 1087ft 0kts
03-Apr-20 16:52 46.573004 -120.554164 288 1087ft 0kts
03-Apr-20 16:53 46.573004 -120.554164 288 1087ft 0kts
03-Apr-20 16:54 46.573004 -120.554164 288 1087ft 0kts
03-Apr-20 16:55 46.573004 -120.554164 288 1087ft 0kts
03-Apr-20 16:56 46.573004 -120.554164 288 1087ft 0kts
03-Apr-20 16:57 46.573004 -120.554164 288 1087ft 0kts
03-Apr-20 16:58 46.573004 -120.554164 288 1087ft 0kts
03-Apr-20 16:59 46.573004 -120.554164 288 1087ft 0kts
03-Apr-20 17:00 46.573004 -120.554164 288 1087ft 0kts
03-Apr-20 17:01 46.573004 -120.554164 288 1087ft 0kts
03-Apr-20 17:02 46.573004 -120.554164 288 1087ft 0kts
03-Apr-20 17:03 46.573004 -120.554164 288 1087ft 0kts
03-Apr-20 17:04 46.573004 -120.554164 288 1087ft 0kts
03-Apr-20 17:05 46.573004 -120.554164 288 1087ft 0kts
03-Apr-20 17:06 46.573004 -120.554164 288 1087ft 0kts
03-Apr-20 17:07 46.573004 -120.554164 288 1087ft 0kts
03-Apr-20 17:08 46.573004 -120.554164 288 1087ft 0kts
03-Apr-20 17:09 46.573004 -120.554164 288 1087ft 0kts
03-Apr-20 17:10 46.573004 -120.554164 288 1087ft 0kts
03-Apr-20 17:11 46.573004 -120.554164 288 1087ft 0kts
03-Apr-20 17:12 46.573004 -120.554164 288 1087ft 0kts
03-Apr-20 17:13 46.573004 -120.554164 288 1087ft 0kts
03-Apr-20 17:14 46.573004 -120.554164 288 1087ft 0kts
03-Apr-20 17:15 46.573004 -120.554164 288 1087ft 0kts
03-Apr-20 17:16 46.573004 -120.554164 288 1087ft 0kts
03-Apr-20 17:17 46.573004 -120.554164 288 1087ft 0kts
03-Apr-20 17:18 46.573004 -120.554164 288 1087ft 0kts
03-Apr-20 17:19 46.573004 -120.554164 288 1087ft 0kts
03-Apr-20 17:20 46.573004 -120.554164 288 1087ft 0kts
03-Apr-20 17:21 46.573004 -120.554164 288 1087ft 0kts
03-Apr-20 17:22 46.573004 -120.554164 288 1087ft 0kts
03-Apr-20 17:23 46.573004 -120.554164 288 1087ft 0kts
03-Apr-20 17:24 46.572776 -120.554085 116 1087ft 0kts
03-Apr-20 17:25 46.572776 -120.554085 116 1087ft 0kts
03-Apr-20 17:26 46.570904 -120.548069 111 1075ft 37kts
03-Apr-20 17:27 46.567158 -120.533373 109 1050ft 28kts
03-Apr-20 17:28 46.566547 -120.531593 168 1046ft 0kts
03-Apr-20 17:29 46.566547 -120.531593 168 1046ft 0kts
03-Apr-20 17:30 46.566005 -120.531464 178 1046ft 10kts
03-Apr-20 17:31 46.569436 -120.546963 291 1701ft 90kts
03-Apr-20 17:32 46.580071 -120.594713 281 3871ft 127kts
03-Apr-20 17:33 46.584206 -120.640817 277 6469ft 116kts
03-Apr-20 17:34 46.603657 -120.666048 29 8986ft 156kts
03-Apr-20 17:35 46.641067 -120.637110 20 11559ft 159kts
03-Apr-20 17:36 46.677444 -120.597180 38 13913ft 173kts
03-Apr-20 17:37 46.705900 -120.537634 58 16304ft 189kts
03-Apr-20 17:38 46.719783 -120.461387 82 18680ft 204kts
03-Apr-20 17:39 46.709275 -120.362176 113 19015ft 292kts
03-Apr-20 17:40 46.661210 -120.261461 114 18961ft 321kts
03-Apr-20 17:41 46.702304 -120.170184 12 18993ft 294kts
03-Apr-20 17:42 46.768682 -120.100352 44 18982ft 312kts
03-Apr-20 17:43 46.824118 -120.003229 44 18975ft 312kts
03-Apr-20 17:44 46.879890 -119.905300 44 18964ft 313kts
03-Apr-20 17:45 46.935078 -119.808045 44 18951ft 309kts
03-Apr-20 17:46 46.989586 -119.711664 44 18944ft 303kts
03-Apr-20 17:47 47.042638 -119.617539 44 18944ft 297kts
03-Apr-20 17:48 47.094965 -119.524329 44 18944ft 294kts
03-Apr-20 17:49 47.146880 -119.431604 44 18781ft 300kts
03-Apr-20 17:50 47.201080 -119.334439 46 17816ft 308kts
03-Apr-20 17:51 47.232826 -119.216246 68 16794ft 314kts
03-Apr-20 17:52 47.259281 -119.093930 69 15794ft 312kts
03-Apr-20 17:53 47.285448 -118.972402 69 14795ft 312kts
03-Apr-20 17:54 47.311615 -118.850315 70 13796ft 314kts
03-Apr-20 17:55 47.337614 -118.728056 71 13035ft 312kts
03-Apr-20 17:56 47.362658 -118.609588 71 13037ft 300kts
03-Apr-20 17:57 47.387087 -118.493443 71 13033ft 298kts
03-Apr-20 17:58 47.411073 -118.378759 71 13021ft 298kts
03-Apr-20 17:59 47.430230 -118.286693 71 13007ft 298kts
03-Apr-20 18:00 47.448891 -118.196584 71 13007ft 298kts
03-Apr-20 18:01 47.465654 -118.115298 71 13008ft 297kts
03-Apr-20 18:02 47.482031 -118.035568 71 13009ft 297kts
03-Apr-20 18:03 47.498582 -117.954688 72 12576ft 295kts
03-Apr-20 18:04 47.514189 -117.878023 72 11705ft 289kts
03-Apr-20 18:05 47.532867 -117.787446 72 10647ft 271kts
03-Apr-20 18:06 47.547381 -117.718377 72 9718ft 257kts
03-Apr-20 18:07 47.560195 -117.658611 72 8650ft 255kts
03-Apr-20 18:08 47.576711 -117.583400 71 7280ft 247kts
03-Apr-20 18:09 47.592257 -117.514445 71 6984ft 208kts
03-Apr-20 18:10 47.616458 -117.456962 45 6189ft 198kts
03-Apr-20 18:11 47.651112 -117.434713 345 5407ft 157kts
03-Apr-20 18:12 47.664687 -117.473966 204 3616ft 142kts
03-Apr-20 18:13 47.642547 -117.501502 223 2776ft 94kts
03-Apr-20 18:14 47.629112 -117.521443 224 2336ft 71kts
03-Apr-20 18:15 47.622291 -117.531631 224 2354ft 24kts
03-Apr-20 18:16 47.620745 -117.531939 135 2357ft 3kts
03-Apr-20 18:17 47.620856 -117.528249 127 2357ft 0kts
03-Apr-20 18:18 47.620856 -117.528249 127 2357ft 0kts
03-Apr-20 18:19 47.620856 -117.528249 127 2357ft 0kts

Navigation Log

Ident Type
Flight plan parsing failed, navigation log unavailable